createdAt,value
2023-03-16T00:00:54.493Z,1.25
2023-03-16T00:03:22.033Z,1.13
2023-03-16T00:05:51.280Z,0.90
2023-03-16T00:08:19.744Z,1.27
2023-03-16T00:10:47.719Z,1.15
2023-03-16T00:13:17.305Z,1.98
2023-03-16T00:15:56.386Z,0.80
2023-03-16T00:18:29.082Z,1.27
2023-03-16T00:20:59.466Z,1.20
2023-03-16T00:23:29.773Z,1.05
2023-03-16T00:25:59.345Z,1.00
2023-03-16T00:28:29.043Z,1.10
2023-03-16T00:31:02.358Z,1.25
2023-03-16T00:33:30.484Z,0.93
2023-03-16T00:36:03.935Z,1.35
2023-03-16T00:38:34.937Z,1.00
2023-03-16T00:41:07.737Z,1.40
2023-03-16T00:43:44.024Z,1.20
2023-03-16T00:46:14.438Z,2.30
2023-03-16T00:48:44.857Z,0.93
2023-03-16T00:51:15.413Z,0.90
2023-03-16T00:53:44.569Z,1.38
2023-03-16T00:56:13.837Z,1.33
2023-03-16T00:58:43.365Z,1.27
2023-03-16T01:01:19.907Z,1.92
2023-03-16T01:03:48.742Z,1.13
2023-03-16T01:08:45.054Z,1.20
2023-03-16T01:11:17.900Z,1.00
2023-03-16T01:13:47.427Z,1.23
2023-03-16T01:16:19.050Z,1.52
2023-03-16T01:18:50.041Z,1.23
2023-03-16T01:21:17.809Z,1.40
2023-03-16T01:23:45.364Z,1.58
2023-03-16T01:26:13.188Z,2.22
2023-03-16T01:28:40.676Z,1.20
2023-03-16T01:31:10.642Z,1.25
2023-03-16T01:33:39.025Z,1.15
2023-03-16T01:36:15.184Z,1.00
2023-03-16T01:39:13.173Z,1.45
2023-03-16T01:41:47.102Z,1.27
2023-03-16T01:44:22.655Z,1.73
2023-03-16T01:46:51.020Z,0.90
2023-03-16T01:49:24.015Z,1.35
2023-03-16T01:52:22.964Z,1.85
2023-03-16T01:54:54.579Z,1.27
2023-03-16T01:57:26.212Z,1.30
2023-03-16T01:59:53.862Z,1.67
2023-03-16T02:02:25.564Z,1.10
2023-03-16T02:05:04.165Z,1.38
2023-03-16T02:07:37.996Z,1.60
2023-03-16T02:10:07.728Z,1.60
2023-03-16T02:12:36.321Z,1.20
2023-03-16T02:15:05.026Z,1.15
2023-03-16T02:17:35.430Z,1.60
2023-03-16T02:20:26.403Z,1.27
2023-03-16T02:22:55.002Z,1.60
2023-03-16T02:25:26.493Z,1.20
2023-03-16T02:28:19.175Z,1.17
2023-03-16T02:30:48.062Z,1.50
2023-03-16T02:33:18.203Z,1.15
2023-03-16T02:35:45.860Z,1.30
2023-03-16T02:38:13.427Z,1.02
2023-03-16T02:41:00.871Z,1.17
2023-03-16T02:43:33.617Z,1.42
2023-03-16T02:46:11.771Z,1.45
2023-03-16T02:49:00.138Z,1.50
2023-03-16T02:51:27.715Z,1.60
2023-03-16T02:53:55.356Z,1.98
2023-03-16T02:56:23.991Z,1.50
2023-03-16T02:58:51.393Z,1.98
2023-03-16T03:01:20.652Z,1.42
2023-03-16T03:03:49.441Z,2.03
2023-03-16T03:06:17.100Z,1.80
2023-03-16T03:08:44.568Z,2.10
2023-03-16T03:11:12.740Z,1.60
2023-03-16T03:13:40.196Z,1.55
2023-03-16T03:16:14.495Z,1.92
2023-03-16T03:18:42.630Z,1.45
2023-03-16T03:21:10.208Z,1.85
2023-03-16T03:23:37.766Z,1.85
2023-03-16T03:26:08.304Z,2.20
2023-03-16T03:28:35.973Z,1.58
2023-03-16T03:31:03.581Z,2.05
2023-03-16T03:33:33.750Z,1.65
2023-03-16T03:36:02.229Z,1.80
2023-03-16T03:38:35.457Z,1.95
2023-03-16T03:41:04.082Z,2.10
2023-03-16T03:43:34.779Z,1.70
2023-03-16T03:46:03.934Z,1.95
2023-03-16T03:48:34.141Z,1.80
2023-03-16T03:51:02.948Z,2.10
2023-03-16T03:53:33.072Z,1.80
2023-03-16T03:56:26.872Z,1.90
2023-03-16T03:58:54.678Z,1.77
2023-03-16T04:01:45.156Z,1.77
2023-03-16T04:04:12.757Z,1.90
2023-03-16T04:06:40.246Z,1.92
2023-03-16T04:09:08.482Z,1.52
2023-03-16T04:11:35.924Z,1.88
2023-03-16T04:14:03.998Z,2.55
2023-03-16T04:16:31.473Z,2.30
2023-03-16T04:21:26.461Z,2.08
2023-03-16T04:23:54.554Z,2.05
2023-03-16T04:26:27.137Z,2.72
2023-03-16T04:28:55.097Z,2.40
2023-03-16T04:31:23.168Z,2.03
2023-03-16T04:33:54.682Z,2.20
2023-03-16T04:36:24.309Z,2.10
2023-03-16T04:38:52.306Z,2.47
2023-03-16T04:41:20.216Z,2.45
2023-03-16T04:44:13.844Z,2.53
2023-03-16T04:46:41.486Z,2.42
2023-03-16T04:49:11.188Z,2.75
2023-03-16T04:51:40.850Z,2.38
2023-03-16T04:54:11.403Z,2.33
2023-03-16T04:56:41.907Z,2.35
2023-03-16T04:59:20.477Z,2.22
2023-03-16T05:01:55.184Z,2.20
2023-03-16T05:04:24.677Z,2.47
2023-03-16T05:06:52.365Z,2.53
2023-03-16T05:09:23.857Z,2.20
2023-03-16T05:11:51.462Z,2.53
2023-03-16T05:14:19.559Z,2.53
2023-03-16T05:17:09.894Z,2.88
2023-03-16T05:19:37.587Z,2.30
2023-03-16T05:22:05.267Z,2.50
2023-03-16T05:24:33.118Z,2.33
2023-03-16T05:27:03.501Z,2.55
2023-03-16T05:29:36.985Z,2.50
2023-03-16T05:32:04.795Z,2.50
2023-03-16T05:34:33.054Z,2.30
2023-03-16T05:37:01.060Z,2.60
2023-03-16T05:39:30.889Z,2.80
2023-03-16T05:41:58.552Z,2.20
2023-03-16T05:44:40.512Z,2.40
2023-03-16T05:47:36.721Z,2.20
2023-03-16T05:50:09.267Z,2.10
2023-03-16T05:52:41.463Z,2.60
2023-03-16T05:55:18.715Z,2.30
2023-03-16T05:57:51.663Z,2.10
2023-03-16T06:00:20.973Z,2.17
2023-03-16T06:02:57.567Z,2.05
2023-03-16T06:05:32.227Z,2.42
2023-03-16T06:07:59.750Z,1.92
2023-03-16T06:10:28.030Z,3.10
2023-03-16T06:12:57.099Z,2.40
2023-03-16T06:15:26.667Z,2.47
2023-03-16T06:17:55.197Z,2.22
2023-03-16T06:22:50.126Z,2.63
2023-03-16T06:25:17.787Z,2.60
2023-03-16T06:27:46.736Z,2.53
2023-03-16T06:30:17.532Z,2.30
2023-03-16T06:32:47.897Z,2.38
2023-03-16T06:35:15.566Z,2.40
2023-03-16T06:37:50.251Z,2.22
2023-03-16T06:40:41.468Z,2.33
2023-03-16T06:43:09.180Z,2.00
2023-03-16T06:45:36.905Z,1.90
2023-03-16T06:48:05.142Z,2.53
2023-03-16T06:50:32.677Z,2.30
2023-03-16T06:53:00.303Z,2.20
2023-03-16T06:55:31.631Z,2.50
2023-03-16T06:58:02.039Z,2.50
2023-03-16T07:00:31.706Z,2.13
2023-03-16T07:03:00.523Z,2.30
2023-03-16T07:05:29.955Z,2.40
2023-03-16T07:07:59.053Z,2.17
2023-03-16T07:10:27.732Z,2.90
2023-03-16T07:12:55.531Z,2.30
2023-03-16T07:15:26.506Z,1.73
2023-03-16T07:17:56.349Z,2.05
2023-03-16T07:20:24.700Z,2.70
2023-03-16T07:22:52.822Z,2.17
2023-03-16T07:25:21.494Z,2.15
2023-03-16T07:27:54.000Z,2.08
2023-03-16T07:30:27.821Z,2.17
2023-03-16T07:32:55.959Z,1.83
2023-03-16T07:35:26.689Z,2.60
2023-03-16T07:37:55.477Z,1.85
2023-03-16T07:40:24.664Z,2.28
2023-03-16T07:42:54.736Z,2.03
2023-03-16T07:45:35.178Z,1.95
2023-03-16T07:48:04.243Z,2.05
2023-03-16T07:50:48.597Z,2.05
2023-03-16T07:53:19.301Z,2.22
2023-03-16T07:55:51.777Z,2.00
2023-03-16T07:58:19.775Z,1.90
2023-03-16T08:00:49.742Z,2.30
2023-03-16T08:03:17.389Z,1.70
2023-03-16T08:05:45.974Z,1.77
2023-03-16T08:08:16.399Z,1.90
2023-03-16T08:10:44.292Z,1.75
2023-03-16T08:13:16.052Z,2.00
2023-03-16T08:15:58.691Z,2.03
2023-03-16T08:18:39.023Z,1.90
2023-03-16T08:21:07.244Z,1.95
2023-03-16T08:23:36.223Z,2.00
2023-03-16T08:26:09.047Z,1.45
2023-03-16T08:28:38.404Z,1.55
2023-03-16T08:31:10.748Z,1.67
2023-03-16T08:33:54.373Z,1.50
2023-03-16T08:36:25.916Z,1.30
2023-03-16T08:39:06.709Z,1.63
2023-03-16T08:41:43.588Z,1.77
2023-03-16T08:44:24.265Z,1.27
2023-03-16T08:46:52.801Z,1.40
2023-03-16T08:49:21.413Z,1.30
2023-03-16T08:51:57.615Z,1.40
2023-03-16T08:54:25.123Z,1.30
2023-03-16T08:56:52.468Z,1.70
2023-03-16T08:59:29.443Z,1.55
2023-03-16T09:01:58.742Z,1.20
2023-03-16T09:04:29.413Z,1.40
2023-03-16T09:07:08.483Z,1.65
2023-03-16T09:09:36.889Z,1.50
2023-03-16T09:12:07.123Z,1.48
2023-03-16T09:14:37.484Z,1.13
2023-03-16T09:17:05.272Z,1.20
2023-03-16T09:19:50.075Z,1.50
2023-03-16T09:22:19.907Z,1.00
2023-03-16T09:24:48.760Z,1.25
2023-03-16T09:27:16.888Z,1.30
2023-03-16T09:29:45.583Z,1.23
2023-03-16T09:32:14.318Z,1.17
2023-03-16T09:34:42.291Z,1.17
2023-03-16T09:37:09.960Z,1.20
2023-03-16T09:39:38.319Z,1.38
2023-03-16T09:42:19.380Z,1.33
2023-03-16T09:45:06.412Z,1.40
2023-03-16T09:47:36.816Z,1.30
2023-03-16T09:50:08.757Z,1.08
2023-03-16T09:53:02.721Z,1.27
2023-03-16T09:55:38.943Z,1.40
2023-03-16T09:58:19.156Z,1.43
2023-03-16T10:01:37.828Z,1.02
2023-03-16T10:04:11.687Z,1.00
2023-03-16T10:06:52.323Z,1.15
2023-03-16T10:09:47.574Z,1.40
2023-03-16T10:12:16.203Z,0.95
2023-03-16T10:14:57.883Z,1.20
2023-03-16T10:18:00.560Z,1.05
2023-03-16T10:20:33.308Z,1.30
2023-03-16T10:23:09.342Z,1.02
2023-03-16T10:25:50.363Z,1.58
2023-03-16T10:28:28.768Z,1.30
2023-03-16T10:30:59.527Z,1.30
2023-03-16T10:33:31.584Z,1.80
2023-03-16T10:36:09.467Z,1.80
2023-03-16T10:38:42.874Z,1.83
2023-03-16T10:41:22.580Z,1.30
2023-03-16T10:44:07.473Z,1.70
2023-03-16T10:47:00.085Z,1.42
2023-03-16T10:49:39.468Z,1.52
2023-03-16T10:52:16.420Z,1.55
2023-03-16T10:54:51.609Z,1.52
2023-03-16T10:57:26.003Z,1.58
2023-03-16T10:59:56.830Z,1.30
2023-03-16T11:02:32.994Z,1.17
2023-03-16T11:05:16.106Z,1.80
2023-03-16T11:08:20.701Z,1.33
2023-03-16T11:10:57.800Z,1.58
2023-03-16T11:16:21.607Z,1.33
2023-03-16T11:18:54.266Z,1.20
2023-03-16T11:21:34.806Z,1.45
2023-03-16T11:24:04.401Z,1.80
2023-03-16T11:26:36.037Z,1.50
2023-03-16T11:29:13.046Z,1.77
2023-03-16T11:34:20.120Z,1.42
2023-03-16T11:36:53.608Z,1.30
2023-03-16T11:39:21.197Z,1.30
2023-03-16T11:42:02.857Z,1.77
2023-03-16T11:44:44.817Z,0.82
2023-03-16T11:47:15.539Z,1.20
2023-03-16T11:49:52.840Z,1.02
2023-03-16T11:52:55.210Z,1.58
2023-03-16T11:56:20.147Z,2.17
2023-03-16T11:58:50.342Z,1.48
2023-03-16T12:01:59.798Z,1.35
2023-03-16T12:04:38.497Z,1.30
2023-03-16T12:07:18.429Z,1.60
2023-03-16T12:09:51.022Z,1.40
2023-03-16T12:12:34.668Z,1.50
2023-03-16T12:15:22.586Z,1.42
2023-03-16T12:17:55.705Z,1.70
2023-03-16T12:20:32.220Z,1.30
2023-03-16T12:23:02.797Z,1.30
2023-03-16T12:25:34.866Z,1.00
2023-03-16T12:28:07.811Z,1.10
2023-03-16T12:30:36.169Z,1.30
2023-03-16T12:33:09.545Z,1.45
2023-03-16T12:35:46.945Z,1.20
2023-03-16T12:38:35.601Z,1.30
2023-03-16T12:41:17.950Z,1.30
2023-03-16T12:44:04.362Z,1.20
2023-03-16T12:46:57.539Z,1.00
2023-03-16T12:49:26.778Z,1.40
2023-03-16T12:52:07.045Z,1.33
2023-03-16T12:54:34.963Z,1.40
2023-03-16T12:57:09.840Z,1.42
2023-03-16T12:59:43.240Z,1.00
2023-03-16T13:02:18.151Z,1.10
2023-03-16T13:04:51.563Z,1.30
2023-03-16T13:07:24.005Z,1.25
2023-03-16T13:10:04.621Z,1.90
2023-03-16T13:12:41.860Z,1.65
2023-03-16T13:15:22.797Z,1.40
2023-03-16T13:18:04.556Z,1.17
2023-03-16T13:20:35.108Z,1.30
2023-03-16T13:23:24.688Z,1.20
2023-03-16T13:26:03.412Z,1.25
2023-03-16T13:28:39.033Z,0.90
2023-03-16T13:31:21.796Z,1.30
2023-03-16T13:33:55.788Z,1.33
2023-03-16T13:36:25.705Z,1.33
2023-03-16T13:39:03.565Z,1.52
2023-03-16T13:41:31.452Z,1.13
2023-03-16T13:43:58.929Z,1.10
2023-03-16T13:46:30.388Z,1.30
2023-03-16T13:49:00.951Z,1.20
2023-03-16T13:51:31.684Z,1.45
2023-03-16T13:54:06.681Z,1.35
2023-03-16T13:56:34.775Z,1.30
2023-03-16T13:59:02.799Z,1.30
2023-03-16T14:01:32.825Z,1.50
2023-03-16T14:04:11.953Z,1.70
2023-03-16T14:06:41.594Z,1.02
2023-03-16T14:09:17.511Z,1.20
2023-03-16T14:11:48.713Z,1.80
2023-03-16T14:14:39.416Z,1.67
2023-03-16T14:17:17.099Z,1.77
2023-03-16T14:19:47.328Z,1.60
2023-03-16T14:22:18.237Z,1.40
2023-03-16T14:24:53.804Z,1.42
2023-03-16T14:27:25.559Z,1.50
2023-03-16T14:30:15.332Z,1.33
2023-03-16T14:32:57.051Z,1.50
2023-03-16T14:35:30.798Z,1.48
2023-03-16T14:38:22.728Z,1.35
2023-03-16T14:40:56.742Z,1.25
2023-03-16T14:43:31.592Z,1.33
2023-03-16T14:46:00.449Z,2.05
2023-03-16T14:48:30.363Z,2.42
2023-03-16T14:51:01.762Z,1.60
2023-03-16T14:53:30.167Z,1.45
2023-03-16T14:55:59.522Z,1.60
2023-03-16T14:58:27.049Z,1.30
2023-03-16T15:00:54.976Z,1.70
2023-03-16T15:03:35.607Z,1.23
2023-03-16T15:06:03.165Z,1.40
2023-03-16T15:08:33.800Z,1.73
2023-03-16T15:11:05.962Z,1.70
2023-03-16T15:13:57.195Z,1.80
2023-03-16T15:16:24.920Z,1.75
2023-03-16T15:18:52.694Z,1.55
2023-03-16T15:21:25.476Z,1.35
2023-03-16T15:23:53.024Z,1.30
2023-03-16T15:26:27.228Z,1.63
2023-03-16T15:28:56.746Z,1.23
2023-03-16T15:31:24.931Z,1.33
2023-03-16T15:33:52.531Z,1.83
2023-03-16T15:36:22.450Z,1.63
2023-03-16T15:38:53.543Z,1.55
2023-03-16T15:41:21.455Z,1.40
2023-03-16T15:43:49.204Z,1.92
2023-03-16T15:46:17.054Z,1.55
2023-03-16T15:48:44.622Z,1.52
2023-03-16T15:51:26.509Z,1.50
2023-03-16T15:53:59.546Z,1.95
2023-03-16T15:56:30.356Z,1.80
2023-03-16T15:59:01.204Z,1.60
2023-03-16T16:01:35.020Z,1.95
2023-03-16T16:04:03.645Z,1.88
2023-03-16T16:06:31.941Z,1.80
2023-03-16T16:08:59.574Z,1.75
2023-03-16T16:11:28.565Z,2.00
2023-03-16T16:13:58.241Z,2.22
2023-03-16T16:16:31.994Z,1.73
2023-03-16T16:19:00.380Z,1.75
2023-03-16T16:21:32.784Z,1.80
2023-03-16T16:24:02.313Z,1.70
2023-03-16T16:26:50.514Z,1.40
2023-03-16T16:29:28.165Z,1.73
2023-03-16T16:31:55.941Z,2.13
2023-03-16T16:34:25.184Z,1.80
2023-03-16T16:36:57.322Z,1.90
2023-03-16T16:39:25.504Z,1.92
2023-03-16T16:41:55.366Z,2.45
2023-03-16T16:44:34.457Z,1.90
2023-03-16T16:47:03.695Z,1.65
2023-03-16T16:49:31.571Z,1.80
2023-03-16T16:51:59.712Z,1.80
2023-03-16T16:54:31.716Z,1.40
2023-03-16T16:57:00.841Z,1.70
2023-03-16T16:59:37.853Z,1.50
2023-03-16T17:02:23.271Z,1.35
2023-03-16T17:04:51.008Z,1.75
2023-03-16T17:07:18.613Z,1.50
2023-03-16T17:09:46.558Z,1.60
2023-03-16T17:12:21.401Z,1.80
2023-03-16T17:14:50.657Z,1.65
2023-03-16T17:17:18.790Z,1.65
2023-03-16T17:19:48.275Z,1.48
2023-03-16T17:22:28.636Z,1.55
2023-03-16T17:24:56.978Z,2.45
2023-03-16T17:27:28.641Z,1.77
2023-03-16T17:29:57.881Z,2.03
2023-03-16T17:32:25.889Z,2.08
2023-03-16T17:34:53.545Z,1.88
2023-03-16T17:37:23.372Z,1.65
2023-03-16T17:39:52.106Z,1.90
2023-03-16T17:42:20.519Z,1.85
2023-03-16T17:44:51.000Z,2.10
2023-03-16T17:47:26.622Z,1.85
2023-03-16T17:49:57.180Z,2.15
2023-03-16T17:52:26.576Z,1.75
2023-03-16T17:54:54.900Z,2.03
2023-03-16T17:57:27.579Z,2.13
2023-03-16T17:59:55.919Z,2.10
2023-03-16T18:02:41.677Z,1.92
2023-03-16T18:05:25.684Z,1.50
2023-03-16T18:07:54.113Z,1.63
2023-03-16T18:10:26.297Z,2.05
2023-03-16T18:13:03.802Z,2.25
2023-03-16T18:15:33.985Z,2.17
2023-03-16T18:18:02.484Z,2.00
2023-03-16T18:20:36.594Z,2.10
2023-03-16T18:23:28.244Z,2.00
2023-03-16T18:26:01.276Z,1.80
2023-03-16T18:28:30.519Z,2.58
2023-03-16T18:30:58.869Z,2.30
2023-03-16T18:33:26.417Z,2.10
2023-03-16T18:35:57.068Z,1.92
2023-03-16T18:38:38.424Z,2.58
2023-03-16T18:41:18.248Z,2.60
2023-03-16T18:43:47.330Z,2.58
2023-03-16T18:46:30.436Z,2.38
2023-03-16T18:49:01.526Z,3.22
2023-03-16T18:51:30.492Z,2.40
2023-03-16T18:53:58.522Z,2.90
2023-03-16T18:56:28.671Z,2.70
2023-03-16T18:58:57.123Z,2.78
2023-03-16T19:01:30.557Z,2.65
2023-03-16T19:04:00.150Z,3.28
2023-03-16T19:06:31.379Z,3.28
2023-03-16T19:09:04.299Z,2.72
2023-03-16T19:11:33.507Z,2.33
2023-03-16T19:14:01.452Z,2.58
2023-03-16T19:16:29.097Z,2.90
2023-03-16T19:18:56.511Z,3.20
2023-03-16T19:21:24.148Z,10.85
2023-03-16T19:23:57.493Z,4.32
2023-03-16T19:26:25.324Z,2.58
2023-03-16T19:28:52.824Z,3.20
2023-03-16T19:31:27.630Z,2.65
2023-03-16T19:33:56.932Z,2.85
2023-03-16T19:36:30.516Z,2.80
2023-03-16T19:38:59.012Z,2.88
2023-03-16T19:41:30.978Z,2.60
2023-03-16T19:44:04.138Z,2.65
2023-03-16T19:46:32.044Z,2.00
2023-03-16T19:48:59.455Z,2.58
2023-03-16T19:51:29.232Z,2.80
2023-03-16T19:53:56.782Z,2.38
2023-03-16T19:56:26.853Z,2.35
2023-03-16T19:58:57.939Z,2.40
2023-03-16T20:01:32.587Z,3.03
2023-03-16T20:04:00.603Z,2.97
2023-03-16T20:06:28.018Z,3.05
2023-03-16T20:08:55.619Z,2.60
2023-03-16T20:11:28.595Z,2.83
2023-03-16T20:13:57.505Z,3.13
2023-03-16T20:16:36.075Z,5.20
2023-03-16T20:19:12.366Z,4.57
2023-03-16T20:21:39.927Z,3.67
2023-03-16T20:24:15.477Z,3.58
2023-03-16T20:26:44.316Z,3.60
2023-03-16T20:29:21.090Z,3.58
2023-03-16T20:31:49.301Z,3.30
2023-03-16T20:34:26.661Z,3.30
2023-03-16T20:36:54.381Z,3.50
2023-03-16T20:39:22.216Z,3.70
2023-03-16T20:41:50.896Z,3.50
2023-03-16T20:44:19.824Z,3.40
2023-03-16T20:46:47.811Z,3.13
2023-03-16T20:49:21.502Z,3.17
2023-03-16T20:51:50.316Z,3.45
2023-03-16T20:54:17.832Z,3.55
2023-03-16T20:56:45.539Z,3.47
2023-03-16T20:59:20.327Z,3.70
2023-03-16T21:01:48.137Z,3.35
2023-03-16T21:04:27.701Z,3.22
2023-03-16T21:06:56.976Z,3.20
2023-03-16T21:09:24.510Z,2.75
2023-03-16T21:11:52.372Z,2.80
2023-03-16T21:14:24.133Z,2.80
2023-03-16T21:16:53.624Z,2.45
2023-03-16T21:19:23.407Z,3.03
2023-03-16T21:21:51.637Z,2.95
2023-03-16T21:24:19.212Z,2.67
2023-03-16T21:26:47.648Z,2.35
2023-03-16T21:29:21.379Z,3.03
2023-03-16T21:31:49.559Z,3.05
2023-03-16T21:34:30.794Z,3.78
2023-03-16T21:36:59.404Z,2.97
2023-03-16T21:39:29.373Z,2.60
2023-03-16T21:41:57.282Z,2.35
2023-03-16T21:44:24.658Z,2.65
2023-03-16T21:46:52.237Z,2.97
2023-03-16T21:49:19.899Z,2.80
2023-03-16T21:51:49.819Z,2.85
2023-03-16T21:54:19.281Z,2.60
2023-03-16T21:56:48.031Z,3.13
2023-03-16T21:59:15.686Z,3.10
2023-03-16T22:02:00.397Z,3.67
2023-03-16T22:04:29.660Z,2.85
2023-03-16T22:06:57.269Z,3.15
2023-03-16T22:09:28.940Z,3.08
2023-03-16T22:11:56.570Z,2.92
2023-03-16T22:14:23.934Z,3.25
2023-03-16T22:16:51.847Z,2.90
2023-03-16T22:19:19.416Z,3.25
2023-03-16T22:21:47.809Z,3.08
2023-03-16T22:24:19.271Z,3.47
2023-03-16T22:26:48.972Z,3.40
2023-03-16T22:29:30.184Z,3.22
2023-03-16T22:32:11.048Z,2.90
2023-03-16T22:34:46.182Z,2.88
2023-03-16T22:37:18.712Z,2.92
2023-03-16T22:39:46.231Z,2.92
2023-03-16T22:42:38.195Z,3.38
2023-03-16T22:45:24.460Z,3.72
2023-03-16T22:47:52.861Z,2.70
2023-03-16T22:50:22.341Z,3.35
2023-03-16T22:52:52.953Z,3.13
2023-03-16T22:55:24.770Z,3.15
2023-03-16T22:58:00.785Z,2.80
2023-03-16T23:00:28.901Z,3.33
2023-03-16T23:02:57.744Z,3.00
2023-03-16T23:05:28.518Z,3.55
2023-03-16T23:07:59.996Z,3.30
2023-03-16T23:10:30.632Z,3.78
2023-03-16T23:12:59.787Z,3.25
2023-03-16T23:15:30.175Z,3.63
2023-03-16T23:17:58.072Z,3.60
2023-03-16T23:20:31.848Z,2.70
2023-03-16T23:22:59.827Z,3.00
2023-03-16T23:25:27.605Z,3.08
2023-03-16T23:27:55.973Z,3.80
2023-03-16T23:30:26.019Z,3.15
2023-03-16T23:32:55.633Z,3.20
2023-03-16T23:35:28.870Z,3.17
2023-03-16T23:37:56.716Z,2.50
2023-03-16T23:40:27.511Z,3.10
2023-03-16T23:42:57.332Z,3.22
2023-03-16T23:45:34.754Z,3.05
2023-03-16T23:48:06.357Z,3.75
2023-03-16T23:50:36.712Z,3.35
2023-03-16T23:53:04.159Z,3.30
2023-03-16T23:55:31.731Z,3.33
2023-03-16T23:57:59.168Z,3.30
